createdAt,value
2023-03-17T10:39:12.525Z,25.00
2023-03-17T10:43:12.549Z,25.00
2023-03-17T10:47:12.549Z,0.00
2023-03-17T10:51:12.178Z,0.00
2023-03-17T10:55:12.160Z,0.00
2023-03-17T10:59:12.150Z,0.00
2023-03-17T11:03:12.069Z,0.00
2023-03-17T11:07:12.130Z,0.00
2023-03-17T11:11:13.071Z,0.00
2023-03-17T11:15:13.030Z,0.00
2023-03-17T11:19:13.030Z,0.00
2023-03-17T11:23:13.021Z,21.79
2023-03-17T11:27:13.074Z,0.00
2023-03-17T11:47:13.202Z,0.00
2023-03-17T13:11:15.117Z,187.38
2023-03-17T13:39:19.728Z,194.31
2023-03-17T13:47:15.266Z,189.93
2023-03-17T13:51:15.542Z,188.72
2023-03-17T13:55:15.277Z,188.95
2023-03-17T13:59:15.584Z,188.00
2023-03-17T14:03:15.303Z,181.06
2023-03-17T14:07:15.386Z,185.14
2023-03-17T14:11:15.460Z,181.61
2023-03-17T14:15:15.569Z,186.83
2023-03-17T14:19:15.659Z,176.17
2023-03-17T14:23:15.769Z,191.06
2023-03-17T14:27:15.860Z,138.53
2023-03-17T14:31:15.972Z,154.32
2023-03-17T14:35:16.046Z,142.25
2023-03-17T14:39:16.145Z,153.15
2023-03-17T14:43:16.351Z,176.59
2023-03-17T14:47:16.367Z,171.29
2023-03-17T14:51:16.608Z,171.86
2023-03-17T14:55:16.620Z,115.02
2023-03-17T14:59:17.115Z,157.90
2023-03-17T15:03:17.121Z,125.16
2023-03-17T15:07:17.119Z,193.55
2023-03-17T15:11:17.120Z,140.58
2023-03-17T15:19:17.398Z,136.06
2023-03-17T15:31:17.883Z,152.20
2023-03-17T15:35:18.018Z,148.41
2023-03-17T16:19:19.706Z,175.63
2023-03-17T17:03:20.064Z,236.99
2023-03-17T17:07:20.113Z,236.23
2023-03-17T17:11:20.290Z,246.53
2023-03-17T17:15:20.376Z,216.15
2023-03-17T17:19:20.896Z,241.63
2023-03-17T22:43:24.134Z,229.72
2023-03-17T22:47:24.301Z,232.16
2023-03-17T22:51:24.822Z,232.47
2023-03-17T22:55:24.815Z,219.97
2023-03-17T22:59:24.828Z,224.43
2023-03-17T23:03:24.894Z,219.38
2023-03-17T23:07:25.322Z,211.45
2023-03-17T23:11:25.850Z,215.60
2023-03-17T23:15:25.405Z,227.49
2023-03-17T23:19:25.315Z,222.70
2023-03-17T23:23:25.397Z,222.24
2023-03-17T23:27:25.550Z,215.99
2023-03-17T23:31:25.811Z,221.39
2023-03-17T23:35:25.847Z,218.76
2023-03-17T23:39:26.332Z,228.15
2023-03-17T23:43:26.088Z,217.31
2023-03-17T23:47:26.373Z,227.26
2023-03-17T23:51:26.830Z,218.83
2023-03-17T23:55:26.821Z,222.14
2023-03-17T23:59:26.637Z,227.93
